sensor_id;sensor_type;location;lat;lon;timestamp;P1;durP1;ratioP1;P2;durP2;ratioP2
20739;SDS011;10530;49.968;19.844;2024-02-21T00:03:25;15.63;;;5.45;;
20739;SDS011;10530;49.968;19.844;2024-02-21T00:08:28;13.07;;;4.07;;
20739;SDS011;10530;49.968;19.844;2024-02-21T00:13:31;11.73;;;4.65;;
20739;SDS011;10530;49.968;19.844;2024-02-21T00:18:34;17.83;;;4.70;;
20739;SDS011;10530;49.968;19.844;2024-02-21T00:23:37;15.30;;;5.90;;
20739;SDS011;10530;49.968;19.844;2024-02-21T00:28:40;15.73;;;6.85;;
20739;SDS011;10530;49.968;19.844;2024-02-21T00:33:44;13.93;;;5.37;;
20739;SDS011;10530;49.968;19.844;2024-02-21T00:38:47;13.68;;;5.53;;
20739;SDS011;10530;49.968;19.844;2024-02-21T00:43:50;12.93;;;4.97;;
20739;SDS011;10530;49.968;19.844;2024-02-21T00:48:53;11.37;;;3.63;;
20739;SDS011;10530;49.968;19.844;2024-02-21T00:53:56;10.95;;;3.40;;
20739;SDS011;10530;49.968;19.844;2024-02-21T00:58:59;12.13;;;3.97;;
20739;SDS011;10530;49.968;19.844;2024-02-21T01:04:02;13.65;;;3.70;;
20739;SDS011;10530;49.968;19.844;2024-02-21T01:09:05;10.98;;;3.72;;
20739;SDS011;10530;49.968;19.844;2024-02-21T01:14:08;8.43;;;2.93;;
20739;SDS011;10530;49.968;19.844;2024-02-21T01:19:13;15.80;;;3.40;;
20739;SDS011;10530;49.968;19.844;2024-02-21T01:24:16;9.90;;;2.90;;
20739;SDS011;10530;49.968;19.844;2024-02-21T01:29:19;12.05;;;3.60;;
20739;SDS011;10530;49.968;19.844;2024-02-21T01:34:22;7.28;;;2.58;;
20739;SDS011;10530;49.968;19.844;2024-02-21T01:39:25;13.27;;;3.17;;
20739;SDS011;10530;49.968;19.844;2024-02-21T01:44:28;7.90;;;3.28;;
20739;SDS011;10530;49.968;19.844;2024-02-21T01:49:31;8.47;;;2.90;;
20739;SDS011;10530;49.968;19.844;2024-02-21T01:54:34;8.73;;;3.15;;
20739;SDS011;10530;49.968;19.844;2024-02-21T01:59:38;13.10;;;3.22;;
20739;SDS011;10530;49.968;19.844;2024-02-21T02:04:41;16.83;;;3.57;;
20739;SDS011;10530;49.968;19.844;2024-02-21T02:09:44;15.95;;;3.90;;
20739;SDS011;10530;49.968;19.844;2024-02-21T02:14:56;6.20;;;2.50;;
20739;SDS011;10530;49.968;19.844;2024-02-21T02:19:59;9.80;;;3.17;;
20739;SDS011;10530;49.968;19.844;2024-02-21T02:25:04;9.35;;;3.28;;
20739;SDS011;10530;49.968;19.844;2024-02-21T02:30:07;9.40;;;3.10;;
20739;SDS011;10530;49.968;19.844;2024-02-21T02:35:11;12.93;;;4.10;;
20739;SDS011;10530;49.968;19.844;2024-02-21T02:40:13;7.37;;;2.87;;
20739;SDS011;10530;49.968;19.844;2024-02-21T02:45:17;11.02;;;2.85;;
20739;SDS011;10530;49.968;19.844;2024-02-21T02:50:21;10.95;;;3.25;;
20739;SDS011;10530;49.968;19.844;2024-02-21T02:55:24;6.20;;;2.83;;
20739;SDS011;10530;49.968;19.844;2024-02-21T03:00:28;8.00;;;3.13;;
20739;SDS011;10530;49.968;19.844;2024-02-21T03:05:32;8.67;;;2.40;;
20739;SDS011;10530;49.968;19.844;2024-02-21T03:10:35;10.10;;;2.85;;
20739;SDS011;10530;49.968;19.844;2024-02-21T03:15:39;11.23;;;3.38;;
20739;SDS011;10530;49.968;19.844;2024-02-21T03:20:42;8.80;;;2.90;;
20739;SDS011;10530;49.968;19.844;2024-02-21T03:25:45;9.93;;;2.58;;
20739;SDS011;10530;49.968;19.844;2024-02-21T03:30:48;9.40;;;2.47;;
20739;SDS011;10530;49.968;19.844;2024-02-21T03:35:51;10.93;;;2.88;;
20739;SDS011;10530;49.968;19.844;2024-02-21T03:40:54;8.82;;;3.20;;
20739;SDS011;10530;49.968;19.844;2024-02-21T03:45:57;8.73;;;2.70;;
20739;SDS011;10530;49.968;19.844;2024-02-21T03:51:00;8.65;;;2.45;;
20739;SDS011;10530;49.968;19.844;2024-02-21T03:56:03;9.33;;;2.60;;
20739;SDS011;10530;49.968;19.844;2024-02-21T04:01:06;8.43;;;2.30;;
20739;SDS011;10530;49.968;19.844;2024-02-21T04:06:10;13.05;;;3.45;;
20739;SDS011;10530;49.968;19.844;2024-02-21T04:11:13;7.60;;;2.90;;
20739;SDS011;10530;49.968;19.844;2024-02-21T04:16:16;7.30;;;2.45;;
20739;SDS011;10530;49.968;19.844;2024-02-21T04:21:19;7.47;;;2.70;;
20739;SDS011;10530;49.968;19.844;2024-02-21T04:26:22;9.82;;;2.80;;
20739;SDS011;10530;49.968;19.844;2024-02-21T04:31:26;7.65;;;2.40;;
20739;SDS011;10530;49.968;19.844;2024-02-21T04:36:29;9.33;;;2.80;;
20739;SDS011;10530;49.968;19.844;2024-02-21T04:41:32;8.27;;;3.17;;
20739;SDS011;10530;49.968;19.844;2024-02-21T04:46:35;8.33;;;2.37;;
20739;SDS011;10530;49.968;19.844;2024-02-21T04:51:39;9.93;;;2.63;;
20739;SDS011;10530;49.968;19.844;2024-02-21T04:56:42;6.38;;;2.58;;
20739;SDS011;10530;49.968;19.844;2024-02-21T05:01:45;10.67;;;3.17;;
20739;SDS011;10530;49.968;19.844;2024-02-21T05:06:48;8.38;;;2.85;;
20739;SDS011;10530;49.968;19.844;2024-02-21T05:11:51;8.73;;;2.23;;
20739;SDS011;10530;49.968;19.844;2024-02-21T05:16:54;13.32;;;2.60;;
20739;SDS011;10530;49.968;19.844;2024-02-21T05:21:58;8.52;;;2.65;;
20739;SDS011;10530;49.968;19.844;2024-02-21T05:27:01;7.10;;;2.10;;
20739;SDS011;10530;49.968;19.844;2024-02-21T05:32:04;7.32;;;2.63;;
20739;SDS011;10530;49.968;19.844;2024-02-21T05:37:08;12.43;;;3.20;;
20739;SDS011;10530;49.968;19.844;2024-02-21T05:42:11;8.88;;;2.58;;
20739;SDS011;10530;49.968;19.844;2024-02-21T05:47:14;9.35;;;2.20;;
20739;SDS011;10530;49.968;19.844;2024-02-21T05:52:17;10.00;;;2.93;;
20739;SDS011;10530;49.968;19.844;2024-02-21T05:57:20;5.10;;;1.85;;
20739;SDS011;10530;49.968;19.844;2024-02-21T06:02:23;6.77;;;2.93;;
20739;SDS011;10530;49.968;19.844;2024-02-21T06:07:26;7.70;;;2.03;;
20739;SDS011;10530;49.968;19.844;2024-02-21T06:12:29;6.32;;;2.45;;
20739;SDS011;10530;49.968;19.844;2024-02-21T06:17:32;8.70;;;2.70;;
20739;SDS011;10530;49.968;19.844;2024-02-21T06:22:36;7.25;;;2.40;;
20739;SDS011;10530;49.968;19.844;2024-02-21T06:27:39;8.63;;;2.90;;
20739;SDS011;10530;49.968;19.844;2024-02-21T06:32:42;11.07;;;2.75;;
20739;SDS011;10530;49.968;19.844;2024-02-21T06:37:45;10.85;;;2.97;;
20739;SDS011;10530;49.968;19.844;2024-02-21T06:42:53;10.70;;;3.50;;
20739;SDS011;10530;49.968;19.844;2024-02-21T06:47:56;8.73;;;2.60;;
20739;SDS011;10530;49.968;19.844;2024-02-21T06:52:59;6.67;;;2.30;;
20739;SDS011;10530;49.968;19.844;2024-02-21T06:58:02;8.05;;;2.60;;
20739;SDS011;10530;49.968;19.844;2024-02-21T07:03:05;6.85;;;2.45;;
20739;SDS011;10530;49.968;19.844;2024-02-21T07:08:08;10.73;;;2.40;;
20739;SDS011;10530;49.968;19.844;2024-02-21T07:13:11;10.40;;;2.67;;
20739;SDS011;10530;49.968;19.844;2024-02-21T07:18:15;11.70;;;2.83;;
20739;SDS011;10530;49.968;19.844;2024-02-21T07:23:18;6.72;;;2.33;;
20739;SDS011;10530;49.968;19.844;2024-02-21T07:28:22;7.55;;;2.38;;
20739;SDS011;10530;49.968;19.844;2024-02-21T07:33:25;6.10;;;1.60;;
20739;SDS011;10530;49.968;19.844;2024-02-21T07:38:28;6.65;;;2.35;;
20739;SDS011;10530;49.968;19.844;2024-02-21T07:43:31;12.77;;;2.87;;
20739;SDS011;10530;49.968;19.844;2024-02-21T07:48:35;6.95;;;2.25;;
20739;SDS011;10530;49.968;19.844;2024-02-21T07:53:41;7.57;;;2.70;;
20739;SDS011;10530;49.968;19.844;2024-02-21T07:58:46;9.17;;;2.87;;
20739;SDS011;10530;49.968;19.844;2024-02-21T08:03:49;8.30;;;2.70;;
20739;SDS011;10530;49.968;19.844;2024-02-21T08:08:52;7.20;;;1.90;;
20739;SDS011;10530;49.968;19.844;2024-02-21T08:13:56;4.55;;;1.65;;
20739;SDS011;10530;49.968;19.844;2024-02-21T08:19:00;9.07;;;3.05;;
20739;SDS011;10530;49.968;19.844;2024-02-21T08:24:06;5.67;;;1.83;;
20739;SDS011;10530;49.968;19.844;2024-02-21T08:29:09;11.80;;;2.72;;
20739;SDS011;10530;49.968;19.844;2024-02-21T08:34:12;11.07;;;2.40;;
20739;SDS011;10530;49.968;19.844;2024-02-21T08:39:16;6.70;;;2.38;;
20739;SDS011;10530;49.968;19.844;2024-02-21T08:44:19;5.40;;;1.98;;
20739;SDS011;10530;49.968;19.844;2024-02-21T08:49:22;6.17;;;2.20;;
20739;SDS011;10530;49.968;19.844;2024-02-21T08:54:27;6.93;;;2.60;;
20739;SDS011;10530;49.968;19.844;2024-02-21T08:59:30;7.43;;;2.37;;
20739;SDS011;10530;49.968;19.844;2024-02-21T09:04:34;9.20;;;2.78;;
20739;SDS011;10530;49.968;19.844;2024-02-21T09:09:37;8.05;;;1.70;;
20739;SDS011;10530;49.968;19.844;2024-02-21T09:14:41;6.60;;;1.87;;
20739;SDS011;10530;49.968;19.844;2024-02-21T09:19:44;5.88;;;1.95;;
20739;SDS011;10530;49.968;19.844;2024-02-21T09:24:48;5.80;;;2.30;;
20739;SDS011;10530;49.968;19.844;2024-02-21T09:29:50;6.40;;;1.92;;
20739;SDS011;10530;49.968;19.844;2024-02-21T09:34:54;4.70;;;1.70;;
20739;SDS011;10530;49.968;19.844;2024-02-21T09:40:01;5.87;;;2.20;;
20739;SDS011;10530;49.968;19.844;2024-02-21T09:45:08;5.65;;;1.98;;
20739;SDS011;10530;49.968;19.844;2024-02-21T09:50:13;5.53;;;1.83;;
20739;SDS011;10530;49.968;19.844;2024-02-21T09:55:17;5.55;;;1.70;;
20739;SDS011;10530;49.968;19.844;2024-02-21T10:00:20;7.00;;;2.00;;
20739;SDS011;10530;49.968;19.844;2024-02-21T10:05:24;5.93;;;2.40;;
20739;SDS011;10530;49.968;19.844;2024-02-21T10:10:27;4.45;;;1.80;;
20739;SDS011;10530;49.968;19.844;2024-02-21T10:15:32;6.23;;;2.10;;
20739;SDS011;10530;49.968;19.844;2024-02-21T10:20:34;4.80;;;1.75;;
20739;SDS011;10530;49.968;19.844;2024-02-21T10:25:38;5.32;;;1.70;;
20739;SDS011;10530;49.968;19.844;2024-02-21T10:30:52;4.70;;;1.93;;
20739;SDS011;10530;49.968;19.844;2024-02-21T10:36:05;5.68;;;2.20;;
20739;SDS011;10530;49.968;19.844;2024-02-21T10:41:10;6.37;;;2.30;;
20739;SDS011;10530;49.968;19.844;2024-02-21T10:46:14;4.57;;;1.98;;
20739;SDS011;10530;49.968;19.844;2024-02-21T10:51:21;4.97;;;2.00;;
20739;SDS011;10530;49.968;19.844;2024-02-21T10:56:30;5.60;;;2.07;;
20739;SDS011;10530;49.968;19.844;2024-02-21T11:01:33;7.28;;;2.40;;
20739;SDS011;10530;49.968;19.844;2024-02-21T11:06:41;6.50;;;2.10;;
20739;SDS011;10530;49.968;19.844;2024-02-21T11:11:45;5.50;;;1.80;;
20739;SDS011;10530;49.968;19.844;2024-02-21T11:16:48;5.45;;;1.70;;
20739;SDS011;10530;49.968;19.844;2024-02-21T11:21:52;7.20;;;2.20;;
20739;SDS011;10530;49.968;19.844;2024-02-21T11:26:56;8.48;;;2.65;;
20739;SDS011;10530;49.968;19.844;2024-02-21T11:31:59;6.57;;;2.27;;
20739;SDS011;10530;49.968;19.844;2024-02-21T11:37:12;4.30;;;1.88;;
20739;SDS011;10530;49.968;19.844;2024-02-21T11:42:19;6.22;;;2.50;;
20739;SDS011;10530;49.968;19.844;2024-02-21T11:47:22;4.37;;;1.67;;
20739;SDS011;10530;49.968;19.844;2024-02-21T11:52:26;6.90;;;2.20;;
20739;SDS011;10530;49.968;19.844;2024-02-21T11:57:30;9.33;;;2.43;;
20739;SDS011;10530;49.968;19.844;2024-02-21T12:02:33;5.75;;;2.78;;
20739;SDS011;10530;49.968;19.844;2024-02-21T12:07:36;7.18;;;2.25;;
20739;SDS011;10530;49.968;19.844;2024-02-21T12:12:43;7.53;;;2.63;;
20739;SDS011;10530;49.968;19.844;2024-02-21T12:17:46;7.13;;;2.60;;
20739;SDS011;10530;49.968;19.844;2024-02-21T12:22:49;7.20;;;2.43;;
20739;SDS011;10530;49.968;19.844;2024-02-21T12:27:53;4.22;;;1.63;;
20739;SDS011;10530;49.968;19.844;2024-02-21T12:32:58;7.75;;;2.50;;
20739;SDS011;10530;49.968;19.844;2024-02-21T12:38:03;6.83;;;1.93;;
20739;SDS011;10530;49.968;19.844;2024-02-21T12:43:07;6.75;;;2.53;;
20739;SDS011;10530;49.968;19.844;2024-02-21T12:48:10;5.70;;;2.27;;
20739;SDS011;10530;49.968;19.844;2024-02-21T12:53:14;6.78;;;1.85;;
20739;SDS011;10530;49.968;19.844;2024-02-21T12:58:29;9.95;;;2.60;;
20739;SDS011;10530;49.968;19.844;2024-02-21T13:03:33;6.90;;;2.13;;
20739;SDS011;10530;49.968;19.844;2024-02-21T13:08:37;4.63;;;1.77;;
20739;SDS011;10530;49.968;19.844;2024-02-21T13:13:40;9.10;;;2.60;;
20739;SDS011;10530;49.968;19.844;2024-02-21T13:18:43;6.28;;;2.47;;
20739;SDS011;10530;49.968;19.844;2024-02-21T13:23:49;5.13;;;2.50;;
20739;SDS011;10530;49.968;19.844;2024-02-21T13:28:52;12.00;;;2.50;;
20739;SDS011;10530;49.968;19.844;2024-02-21T13:33:56;6.93;;;2.75;;
20739;SDS011;10530;49.968;19.844;2024-02-21T13:38:59;9.50;;;2.43;;
20739;SDS011;10530;49.968;19.844;2024-02-21T13:44:02;8.73;;;2.95;;
20739;SDS011;10530;49.968;19.844;2024-02-21T13:49:06;7.03;;;2.67;;
20739;SDS011;10530;49.968;19.844;2024-02-21T13:54:09;5.93;;;2.53;;
20739;SDS011;10530;49.968;19.844;2024-02-21T13:59:13;6.15;;;2.47;;
20739;SDS011;10530;49.968;19.844;2024-02-21T14:04:16;7.37;;;2.90;;
20739;SDS011;10530;49.968;19.844;2024-02-21T14:09:19;5.95;;;2.50;;
20739;SDS011;10530;49.968;19.844;2024-02-21T14:14:22;8.32;;;2.60;;
20739;SDS011;10530;49.968;19.844;2024-02-21T14:19:25;7.50;;;3.17;;
20739;SDS011;10530;49.968;19.844;2024-02-21T14:24:28;6.32;;;2.45;;
20739;SDS011;10530;49.968;19.844;2024-02-21T14:29:31;7.40;;;2.70;;
20739;SDS011;10530;49.968;19.844;2024-02-21T14:34:34;6.47;;;2.38;;
20739;SDS011;10530;49.968;19.844;2024-02-21T14:39:37;7.32;;;2.63;;
20739;SDS011;10530;49.968;19.844;2024-02-21T14:44:42;6.77;;;2.63;;
20739;SDS011;10530;49.968;19.844;2024-02-21T14:49:45;7.05;;;2.95;;
20739;SDS011;10530;49.968;19.844;2024-02-21T14:54:49;8.93;;;2.77;;
20739;SDS011;10530;49.968;19.844;2024-02-21T14:59:53;8.65;;;2.53;;
20739;SDS011;10530;49.968;19.844;2024-02-21T15:04:58;5.78;;;1.88;;
20739;SDS011;10530;49.968;19.844;2024-02-21T15:10:01;5.83;;;1.73;;
20739;SDS011;10530;49.968;19.844;2024-02-21T15:15:05;8.75;;;2.58;;
20739;SDS011;10530;49.968;19.844;2024-02-21T15:20:08;7.77;;;2.20;;
20739;SDS011;10530;49.968;19.844;2024-02-21T15:25:11;4.65;;;1.65;;
20739;SDS011;10530;49.968;19.844;2024-02-21T15:30:19;6.38;;;2.00;;
20739;SDS011;10530;49.968;19.844;2024-02-21T15:35:22;6.43;;;1.90;;
20739;SDS011;10530;49.968;19.844;2024-02-21T15:40:26;7.93;;;2.90;;
20739;SDS011;10530;49.968;19.844;2024-02-21T15:45:29;6.50;;;2.07;;
20739;SDS011;10530;49.968;19.844;2024-02-21T15:50:33;8.73;;;2.70;;
20739;SDS011;10530;49.968;19.844;2024-02-21T15:55:36;8.90;;;2.13;;
20739;SDS011;10530;49.968;19.844;2024-02-21T16:00:39;8.10;;;2.30;;
20739;SDS011;10530;49.968;19.844;2024-02-21T16:05:42;6.35;;;2.20;;
20739;SDS011;10530;49.968;19.844;2024-02-21T16:10:45;7.80;;;2.07;;
20739;SDS011;10530;49.968;19.844;2024-02-21T16:15:48;7.65;;;2.53;;
20739;SDS011;10530;49.968;19.844;2024-02-21T16:20:51;9.13;;;2.42;;
20739;SDS011;10530;49.968;19.844;2024-02-21T16:25:55;7.03;;;3.10;;
20739;SDS011;10530;49.968;19.844;2024-02-21T16:30:58;8.45;;;2.90;;
20739;SDS011;10530;49.968;19.844;2024-02-21T16:36:02;9.47;;;2.87;;
20739;SDS011;10530;49.968;19.844;2024-02-21T16:41:09;9.00;;;2.33;;
20739;SDS011;10530;49.968;19.844;2024-02-21T16:46:12;5.28;;;2.08;;
20739;SDS011;10530;49.968;19.844;2024-02-21T16:51:17;9.17;;;3.00;;
20739;SDS011;10530;49.968;19.844;2024-02-21T16:56:20;9.93;;;3.22;;
20739;SDS011;10530;49.968;19.844;2024-02-21T17:01:23;11.20;;;2.77;;
20739;SDS011;10530;49.968;19.844;2024-02-21T17:06:26;8.43;;;3.10;;
20739;SDS011;10530;49.968;19.844;2024-02-21T17:11:30;10.70;;;3.08;;
20739;SDS011;10530;49.968;19.844;2024-02-21T17:16:33;5.67;;;2.10;;
20739;SDS011;10530;49.968;19.844;2024-02-21T17:21:38;4.82;;;2.55;;
20739;SDS011;10530;49.968;19.844;2024-02-21T17:26:41;9.30;;;2.40;;
20739;SDS011;10530;49.968;19.844;2024-02-21T17:31:44;6.97;;;3.00;;
20739;SDS011;10530;49.968;19.844;2024-02-21T17:36:47;6.63;;;2.25;;
20739;SDS011;10530;49.968;19.844;2024-02-21T17:41:50;5.30;;;1.90;;
20739;SDS011;10530;49.968;19.844;2024-02-21T17:46:55;6.95;;;2.78;;
20739;SDS011;10530;49.968;19.844;2024-02-21T17:51:58;4.30;;;1.73;;
20739;SDS011;10530;49.968;19.844;2024-02-21T17:57:01;7.72;;;2.55;;
20739;SDS011;10530;49.968;19.844;2024-02-21T18:02:04;6.97;;;2.22;;
20739;SDS011;10530;49.968;19.844;2024-02-21T18:07:08;6.80;;;2.47;;
20739;SDS011;10530;49.968;19.844;2024-02-21T18:12:11;4.95;;;2.28;;
20739;SDS011;10530;49.968;19.844;2024-02-21T18:17:15;8.43;;;3.20;;
20739;SDS011;10530;49.968;19.844;2024-02-21T18:22:22;6.30;;;2.88;;
20739;SDS011;10530;49.968;19.844;2024-02-21T18:27:34;5.65;;;2.33;;
20739;SDS011;10530;49.968;19.844;2024-02-21T18:32:43;5.93;;;2.27;;
20739;SDS011;10530;49.968;19.844;2024-02-21T18:37:48;6.18;;;2.13;;
20739;SDS011;10530;49.968;19.844;2024-02-21T18:42:57;6.23;;;2.67;;
20739;SDS011;10530;49.968;19.844;2024-02-21T18:48:00;8.40;;;2.33;;
20739;SDS011;10530;49.968;19.844;2024-02-21T18:53:04;7.72;;;2.70;;
20739;SDS011;10530;49.968;19.844;2024-02-21T18:58:08;8.70;;;2.93;;
20739;SDS011;10530;49.968;19.844;2024-02-21T19:03:11;7.88;;;2.80;;
20739;SDS011;10530;49.968;19.844;2024-02-21T19:08:14;7.10;;;2.30;;
20739;SDS011;10530;49.968;19.844;2024-02-21T19:13:17;9.40;;;2.78;;
20739;SDS011;10530;49.968;19.844;2024-02-21T19:18:22;8.68;;;3.25;;
20739;SDS011;10530;49.968;19.844;2024-02-21T19:23:25;8.47;;;3.00;;
20739;SDS011;10530;49.968;19.844;2024-02-21T19:28:30;7.57;;;3.47;;
20739;SDS011;10530;49.968;19.844;2024-02-21T19:33:33;6.27;;;2.47;;
20739;SDS011;10530;49.968;19.844;2024-02-21T19:38:36;8.77;;;3.03;;
20739;SDS011;10530;49.968;19.844;2024-02-21T19:43:39;12.10;;;2.83;;
20739;SDS011;10530;49.968;19.844;2024-02-21T19:48:42;8.00;;;2.53;;
20739;SDS011;10530;49.968;19.844;2024-02-21T19:53:46;12.90;;;3.30;;
20739;SDS011;10530;49.968;19.844;2024-02-21T19:58:56;14.17;;;4.23;;
20739;SDS011;10530;49.968;19.844;2024-02-21T20:03:59;10.23;;;3.15;;
20739;SDS011;10530;49.968;19.844;2024-02-21T20:09:05;8.48;;;3.15;;
20739;SDS011;10530;49.968;19.844;2024-02-21T20:14:10;8.20;;;2.63;;
20739;SDS011;10530;49.968;19.844;2024-02-21T20:19:13;5.00;;;1.85;;
20739;SDS011;10530;49.968;19.844;2024-02-21T20:24:17;3.67;;;0.80;;
20739;SDS011;10530;49.968;19.844;2024-02-21T20:29:36;11.05;;;3.13;;
20739;SDS011;10530;49.968;19.844;2024-02-21T20:34:39;3.28;;;0.93;;
20739;SDS011;10530;49.968;19.844;2024-02-21T20:39:43;10.57;;;3.00;;
20739;SDS011;10530;49.968;19.844;2024-02-21T20:44:46;10.85;;;2.33;;
20739;SDS011;10530;49.968;19.844;2024-02-21T20:49:49;8.37;;;2.23;;
20739;SDS011;10530;49.968;19.844;2024-02-21T20:54:56;9.75;;;3.30;;
20739;SDS011;10530;49.968;19.844;2024-02-21T20:59:59;9.48;;;3.38;;
20739;SDS011;10530;49.968;19.844;2024-02-21T21:05:02;7.93;;;2.87;;
20739;SDS011;10530;49.968;19.844;2024-02-21T21:10:06;6.00;;;2.38;;
20739;SDS011;10530;49.968;19.844;2024-02-21T21:15:14;9.63;;;3.50;;
20739;SDS011;10530;49.968;19.844;2024-02-21T21:20:17;9.63;;;3.10;;
20739;SDS011;10530;49.968;19.844;2024-02-21T21:25:21;10.25;;;3.13;;
20739;SDS011;10530;49.968;19.844;2024-02-21T21:30:24;4.67;;;1.73;;
20739;SDS011;10530;49.968;19.844;2024-02-21T21:35:27;10.07;;;2.70;;
20739;SDS011;10530;49.968;19.844;2024-02-21T21:40:30;6.10;;;2.00;;
20739;SDS011;10530;49.968;19.844;2024-02-21T21:45:34;4.70;;;1.63;;
20739;SDS011;10530;49.968;19.844;2024-02-21T21:50:37;9.82;;;2.85;;
20739;SDS011;10530;49.968;19.844;2024-02-21T21:55:40;5.73;;;1.90;;
20739;SDS011;10530;49.968;19.844;2024-02-21T22:00:43;6.65;;;2.47;;
20739;SDS011;10530;49.968;19.844;2024-02-21T22:05:49;1.40;;;0.50;;
20739;SDS011;10530;49.968;19.844;2024-02-21T22:10:53;3.15;;;0.82;;
20739;SDS011;10530;49.968;19.844;2024-02-21T22:15:57;6.13;;;2.13;;
20739;SDS011;10530;49.968;19.844;2024-02-21T22:21:00;8.70;;;3.20;;
20739;SDS011;10530;49.968;19.844;2024-02-21T22:26:03;7.55;;;2.75;;
20739;SDS011;10530;49.968;19.844;2024-02-21T22:31:06;5.30;;;2.23;;
20739;SDS011;10530;49.968;19.844;2024-02-21T22:36:11;8.30;;;2.00;;
20739;SDS011;10530;49.968;19.844;2024-02-21T22:41:20;8.55;;;2.78;;
20739;SDS011;10530;49.968;19.844;2024-02-21T22:46:23;8.13;;;2.27;;
20739;SDS011;10530;49.968;19.844;2024-02-21T22:51:26;5.05;;;1.80;;
20739;SDS011;10530;49.968;19.844;2024-02-21T22:56:30;4.53;;;1.13;;
20739;SDS011;10530;49.968;19.844;2024-02-21T23:01:34;3.58;;;1.27;;
20739;SDS011;10530;49.968;19.844;2024-02-21T23:06:37;6.05;;;1.80;;
20739;SDS011;10530;49.968;19.844;2024-02-21T23:11:41;5.23;;;1.60;;
20739;SDS011;10530;49.968;19.844;2024-02-21T23:16:45;6.13;;;1.92;;
20739;SDS011;10530;49.968;19.844;2024-02-21T23:21:49;4.67;;;1.73;;
20739;SDS011;10530;49.968;19.844;2024-02-21T23:26:52;5.70;;;2.00;;
20739;SDS011;10530;49.968;19.844;2024-02-21T23:31:55;4.95;;;1.70;;
20739;SDS011;10530;49.968;19.844;2024-02-21T23:36:58;5.53;;;2.10;;
20739;SDS011;10530;49.968;19.844;2024-02-21T23:42:01;10.40;;;2.58;;
20739;SDS011;10530;49.968;19.844;2024-02-21T23:47:05;6.00;;;2.13;;
20739;SDS011;10530;49.968;19.844;2024-02-21T23:52:08;9.25;;;2.75;;
20739;SDS011;10530;49.968;19.844;2024-02-21T23:57:11;6.25;;;2.17;;
